Hlavní strana
METAR-TAF:

METAR-TAF

Letiště :

Letecká základna

Linköping, Švédsko

zeměpisná šířka: 58-24N, zeměpisná délka: 015-31E, výška: 93 m

Aktuální stav počasí

Zpráva byla vytvořena před 21 minutami, v 04:20 UTC
Jižní vítr 6 kt
Teplota 8°C
Vlhkost vzduchu 93%
Tlak 1014 hPa
Viditelnost 10 km a více
Zataženo ve výšce 1700 ft

METAR: ESCF 240420Z 17006KT 9999 OVC017 08/07 Q1014

Čas: 06:41 (04:41 UTC)

Předpověď počasí

Zpráva byla vytvořena před 14 hodinami a 11 minutami, v 14:30 UTC
Předpověď platná od 23 v 14 UTC do 23 v 21 UTC
Západojihozápadní vítr 10 kt s nárazy do 20 kt
Viditelnost 10 km a více
Polojasno ve výšce 3000 ft
Změna
od 23 v 14 UTC do 23 v 15 UTC
Jihozápadní vítr 10 kt

TAF: ESCF 231430Z 2314/2321 25010G20KT 9999 SCT030 BECMG 2314/2315 22010KT RMK MIL

Stav a předpovědi počasí z více než 4 000 letišť (zprávy METAR a TAF).

Červené a žluté tečky na mapě představují dostupné meteorologické stanice.

Když kurzor umístíte na tečku, zobrazí se název stanice.

Pak kliknutím zobrazíte stav a předpověď počasí.

Chcete-li změnit mapu, kliknutím na zelené tlačítko se znaménkem +mapu přiblížíte, kliknutím na zelené tlačítko se znaménkem – mapu oddálíte a kliknutím na zelené šipky přejdete na sousední mapy.


METAR-TAF: